sensor_id;sensor_type;location;lat;lon;timestamp;P1;durP1;ratioP1;P2;durP2;ratioP2
12480;SDS011;6305;48.398;11.762;2023-07-30T00:00:33;58.63;;;48.22;;
12480;SDS011;6305;48.398;11.762;2023-07-30T00:03:00;13.65;;;9.02;;
12480;SDS011;6305;48.398;11.762;2023-07-30T00:05:27;8.43;;;6.78;;
12480;SDS011;6305;48.398;11.762;2023-07-30T00:07:54;778.67;;;699.05;;
12480;SDS011;6305;48.398;11.762;2023-07-30T00:10:21;649.60;;;583.88;;
12480;SDS011;6305;48.398;11.762;2023-07-30T00:12:49;235.45;;;194.40;;
12480;SDS011;6305;48.398;11.762;2023-07-30T00:15:16;11.77;;;8.20;;
12480;SDS011;6305;48.398;11.762;2023-07-30T00:17:43;11.18;;;6.68;;
12480;SDS011;6305;48.398;11.762;2023-07-30T00:20:10;10.15;;;6.35;;
12480;SDS011;6305;48.398;11.762;2023-07-30T00:22:37;8.77;;;6.15;;
12480;SDS011;6305;48.398;11.762;2023-07-30T00:25:05;7.63;;;5.38;;
12480;SDS011;6305;48.398;11.762;2023-07-30T00:27:33;8.95;;;5.55;;
12480;SDS011;6305;48.398;11.762;2023-07-30T00:30:01;9.52;;;5.38;;
12480;SDS011;6305;48.398;11.762;2023-07-30T00:32:29;6.53;;;5.13;;
12480;SDS011;6305;48.398;11.762;2023-07-30T00:34:56;6.38;;;5.00;;
12480;SDS011;6305;48.398;11.762;2023-07-30T00:37:23;6.95;;;5.18;;
12480;SDS011;6305;48.398;11.762;2023-07-30T00:39:50;7.50;;;5.03;;
12480;SDS011;6305;48.398;11.762;2023-07-30T00:42:17;6.07;;;5.22;;
12480;SDS011;6305;48.398;11.762;2023-07-30T00:44:45;6.78;;;5.28;;
12480;SDS011;6305;48.398;11.762;2023-07-30T00:47:13;5.97;;;4.28;;
12480;SDS011;6305;48.398;11.762;2023-07-30T00:49:40;5.65;;;4.78;;
12480;SDS011;6305;48.398;11.762;2023-07-30T00:52:07;6.07;;;4.70;;
12480;SDS011;6305;48.398;11.762;2023-07-30T00:54:34;6.10;;;4.80;;
12480;SDS011;6305;48.398;11.762;2023-07-30T00:57:01;8.18;;;4.28;;
12480;SDS011;6305;48.398;11.762;2023-07-30T00:59:29;6.88;;;4.70;;
12480;SDS011;6305;48.398;11.762;2023-07-30T01:01:56;6.07;;;4.90;;
12480;SDS011;6305;48.398;11.762;2023-07-30T01:04:26;6.25;;;4.50;;
12480;SDS011;6305;48.398;11.762;2023-07-30T01:06:53;5.03;;;4.32;;
12480;SDS011;6305;48.398;11.762;2023-07-30T01:09:20;4.20;;;3.80;;
12480;SDS011;6305;48.398;11.762;2023-07-30T01:11:48;7.00;;;4.40;;
12480;SDS011;6305;48.398;11.762;2023-07-30T01:14:15;4.72;;;4.30;;
12480;SDS011;6305;48.398;11.762;2023-07-30T01:16:44;6.97;;;4.22;;
12480;SDS011;6305;48.398;11.762;2023-07-30T01:19:11;5.68;;;4.32;;
12480;SDS011;6305;48.398;11.762;2023-07-30T01:21:39;5.65;;;4.38;;
12480;SDS011;6305;48.398;11.762;2023-07-30T01:24:06;5.65;;;3.85;;
12480;SDS011;6305;48.398;11.762;2023-07-30T01:26:35;5.50;;;4.88;;
12480;SDS011;6305;48.398;11.762;2023-07-30T01:29:07;6.07;;;4.93;;
12480;SDS011;6305;48.398;11.762;2023-07-30T01:31:39;5.07;;;4.43;;
12480;SDS011;6305;48.398;11.762;2023-07-30T01:34:07;5.00;;;4.30;;
12480;SDS011;6305;48.398;11.762;2023-07-30T01:36:37;5.72;;;4.60;;
12480;SDS011;6305;48.398;11.762;2023-07-30T01:39:06;6.40;;;4.95;;
12480;SDS011;6305;48.398;11.762;2023-07-30T01:41:34;5.82;;;4.88;;
12480;SDS011;6305;48.398;11.762;2023-07-30T01:44:02;6.22;;;4.95;;
12480;SDS011;6305;48.398;11.762;2023-07-30T01:46:29;7.55;;;4.82;;
12480;SDS011;6305;48.398;11.762;2023-07-30T01:48:56;7.93;;;4.70;;
12480;SDS011;6305;48.398;11.762;2023-07-30T01:51:22;8.60;;;5.20;;
12480;SDS011;6305;48.398;11.762;2023-07-30T01:53:49;10.02;;;5.75;;
12480;SDS011;6305;48.398;11.762;2023-07-30T01:56:18;6.93;;;4.97;;
12480;SDS011;6305;48.398;11.762;2023-07-30T01:58:45;6.43;;;4.88;;
12480;SDS011;6305;48.398;11.762;2023-07-30T02:01:12;8.77;;;5.22;;
12480;SDS011;6305;48.398;11.762;2023-07-30T02:03:38;8.07;;;5.65;;
12480;SDS011;6305;48.398;11.762;2023-07-30T02:06:06;9.60;;;5.38;;
12480;SDS011;6305;48.398;11.762;2023-07-30T02:08:33;8.27;;;6.15;;
12480;SDS011;6305;48.398;11.762;2023-07-30T02:11:00;9.73;;;6.13;;
12480;SDS011;6305;48.398;11.762;2023-07-30T02:13:29;8.15;;;5.97;;
12480;SDS011;6305;48.398;11.762;2023-07-30T02:15:56;8.85;;;5.90;;
12480;SDS011;6305;48.398;11.762;2023-07-30T02:18:23;10.40;;;5.50;;
12480;SDS011;6305;48.398;11.762;2023-07-30T02:20:51;6.03;;;5.22;;
12480;SDS011;6305;48.398;11.762;2023-07-30T02:23:18;6.80;;;5.35;;
12480;SDS011;6305;48.398;11.762;2023-07-30T02:25:45;6.22;;;5.40;;
12480;SDS011;6305;48.398;11.762;2023-07-30T02:28:12;7.25;;;5.70;;
12480;SDS011;6305;48.398;11.762;2023-07-30T02:30:40;10.25;;;6.00;;
12480;SDS011;6305;48.398;11.762;2023-07-30T02:33:07;7.00;;;5.57;;
12480;SDS011;6305;48.398;11.762;2023-07-30T02:35:34;6.72;;;5.10;;
12480;SDS011;6305;48.398;11.762;2023-07-30T02:38:01;6.45;;;5.00;;
12480;SDS011;6305;48.398;11.762;2023-07-30T02:40:28;7.03;;;5.05;;
12480;SDS011;6305;48.398;11.762;2023-07-30T02:42:56;7.93;;;5.00;;
12480;SDS011;6305;48.398;11.762;2023-07-30T02:45:23;5.50;;;4.53;;
12480;SDS011;6305;48.398;11.762;2023-07-30T02:47:51;6.78;;;4.57;;
12480;SDS011;6305;48.398;11.762;2023-07-30T02:50:18;6.75;;;4.38;;
12480;SDS011;6305;48.398;11.762;2023-07-30T02:52:45;5.63;;;4.32;;
12480;SDS011;6305;48.398;11.762;2023-07-30T02:55:12;5.72;;;4.47;;
12480;SDS011;6305;48.398;11.762;2023-07-30T02:57:41;6.60;;;4.30;;
12480;SDS011;6305;48.398;11.762;2023-07-30T03:00:08;6.35;;;4.43;;
12480;SDS011;6305;48.398;11.762;2023-07-30T03:02:36;5.28;;;4.28;;
12480;SDS011;6305;48.398;11.762;2023-07-30T03:05:04;5.57;;;4.50;;
12480;SDS011;6305;48.398;11.762;2023-07-30T03:07:32;6.57;;;4.40;;
12480;SDS011;6305;48.398;11.762;2023-07-30T03:09:59;7.22;;;5.15;;
12480;SDS011;6305;48.398;11.762;2023-07-30T03:12:26;7.43;;;4.50;;
12480;SDS011;6305;48.398;11.762;2023-07-30T03:14:53;7.97;;;4.85;;
12480;SDS011;6305;48.398;11.762;2023-07-30T03:17:20;6.38;;;4.75;;
12480;SDS011;6305;48.398;11.762;2023-07-30T03:19:47;5.65;;;4.68;;
12480;SDS011;6305;48.398;11.762;2023-07-30T03:22:15;6.85;;;5.07;;
12480;SDS011;6305;48.398;11.762;2023-07-30T03:24:42;10.52;;;5.00;;
12480;SDS011;6305;48.398;11.762;2023-07-30T03:27:09;7.72;;;5.03;;
12480;SDS011;6305;48.398;11.762;2023-07-30T03:29:36;8.85;;;5.15;;
12480;SDS011;6305;48.398;11.762;2023-07-30T03:32:03;6.53;;;4.82;;
12480;SDS011;6305;48.398;11.762;2023-07-30T03:34:31;7.00;;;5.07;;
12480;SDS011;6305;48.398;11.762;2023-07-30T03:36:58;6.38;;;5.07;;
12480;SDS011;6305;48.398;11.762;2023-07-30T03:39:26;7.35;;;5.10;;
12480;SDS011;6305;48.398;11.762;2023-07-30T03:41:53;7.40;;;5.40;;
12480;SDS011;6305;48.398;11.762;2023-07-30T03:44:20;7.07;;;5.00;;
12480;SDS011;6305;48.398;11.762;2023-07-30T03:46:48;8.00;;;5.28;;
12480;SDS011;6305;48.398;11.762;2023-07-30T03:49:15;7.40;;;5.25;;
12480;SDS011;6305;48.398;11.762;2023-07-30T03:51:42;9.40;;;6.00;;
12480;SDS011;6305;48.398;11.762;2023-07-30T03:54:09;10.50;;;6.28;;
12480;SDS011;6305;48.398;11.762;2023-07-30T03:56:37;8.88;;;5.88;;
12480;SDS011;6305;48.398;11.762;2023-07-30T03:59:04;9.45;;;5.97;;
12480;SDS011;6305;48.398;11.762;2023-07-30T04:01:31;8.38;;;5.82;;
12480;SDS011;6305;48.398;11.762;2023-07-30T04:03:59;7.97;;;5.82;;
12480;SDS011;6305;48.398;11.762;2023-07-30T04:06:27;8.23;;;6.05;;
12480;SDS011;6305;48.398;11.762;2023-07-30T04:08:55;10.10;;;6.45;;
12480;SDS011;6305;48.398;11.762;2023-07-30T04:11:22;8.13;;;5.53;;
12480;SDS011;6305;48.398;11.762;2023-07-30T04:13:50;9.13;;;5.75;;
12480;SDS011;6305;48.398;11.762;2023-07-30T04:16:17;9.77;;;5.80;;
12480;SDS011;6305;48.398;11.762;2023-07-30T04:18:44;12.02;;;5.90;;
12480;SDS011;6305;48.398;11.762;2023-07-30T04:21:11;9.27;;;6.18;;
12480;SDS011;6305;48.398;11.762;2023-07-30T04:23:39;10.15;;;5.93;;
12480;SDS011;6305;48.398;11.762;2023-07-30T04:26:06;9.50;;;6.25;;
12480;SDS011;6305;48.398;11.762;2023-07-30T04:28:33;10.60;;;6.88;;
12480;SDS011;6305;48.398;11.762;2023-07-30T04:31:02;9.60;;;6.55;;
12480;SDS011;6305;48.398;11.762;2023-07-30T04:33:29;10.55;;;6.53;;
12480;SDS011;6305;48.398;11.762;2023-07-30T04:35:56;9.82;;;6.72;;
12480;SDS011;6305;48.398;11.762;2023-07-30T04:38:23;10.25;;;7.30;;
12480;SDS011;6305;48.398;11.762;2023-07-30T04:40:50;11.18;;;6.55;;
12480;SDS011;6305;48.398;11.762;2023-07-30T04:43:17;10.82;;;6.72;;
12480;SDS011;6305;48.398;11.762;2023-07-30T04:45:48;9.77;;;6.53;;
12480;SDS011;6305;48.398;11.762;2023-07-30T04:48:17;9.68;;;6.68;;
12480;SDS011;6305;48.398;11.762;2023-07-30T04:50:44;9.07;;;6.53;;
12480;SDS011;6305;48.398;11.762;2023-07-30T04:53:11;8.85;;;6.47;;
12480;SDS011;6305;48.398;11.762;2023-07-30T04:55:39;10.50;;;6.72;;
12480;SDS011;6305;48.398;11.762;2023-07-30T04:58:06;11.40;;;5.90;;
12480;SDS011;6305;48.398;11.762;2023-07-30T05:00:33;8.68;;;5.75;;
12480;SDS011;6305;48.398;11.762;2023-07-30T05:03:00;8.80;;;5.97;;
12480;SDS011;6305;48.398;11.762;2023-07-30T05:05:28;7.38;;;5.35;;
12480;SDS011;6305;48.398;11.762;2023-07-30T05:07:55;9.38;;;5.35;;
12480;SDS011;6305;48.398;11.762;2023-07-30T05:10:22;6.38;;;4.65;;
12480;SDS011;6305;48.398;11.762;2023-07-30T05:12:49;5.90;;;4.90;;
12480;SDS011;6305;48.398;11.762;2023-07-30T05:15:16;6.13;;;4.20;;
12480;SDS011;6305;48.398;11.762;2023-07-30T05:17:43;6.13;;;4.13;;
12480;SDS011;6305;48.398;11.762;2023-07-30T05:20:10;5.68;;;3.70;;
12480;SDS011;6305;48.398;11.762;2023-07-30T05:22:38;6.45;;;3.67;;
12480;SDS011;6305;48.398;11.762;2023-07-30T05:25:06;3.72;;;3.13;;
12480;SDS011;6305;48.398;11.762;2023-07-30T05:27:34;5.18;;;2.95;;
12480;SDS011;6305;48.398;11.762;2023-07-30T05:30:01;4.70;;;3.28;;
12480;SDS011;6305;48.398;11.762;2023-07-30T05:32:28;3.88;;;3.20;;
12480;SDS011;6305;48.398;11.762;2023-07-30T05:34:55;3.35;;;3.00;;
12480;SDS011;6305;48.398;11.762;2023-07-30T05:37:22;3.83;;;2.70;;
12480;SDS011;6305;48.398;11.762;2023-07-30T05:39:51;3.35;;;2.70;;
12480;SDS011;6305;48.398;11.762;2023-07-30T05:42:18;3.03;;;2.20;;
12480;SDS011;6305;48.398;11.762;2023-07-30T05:44:45;4.35;;;2.28;;
12480;SDS011;6305;48.398;11.762;2023-07-30T05:47:12;4.15;;;2.63;;
12480;SDS011;6305;48.398;11.762;2023-07-30T05:49:39;2.47;;;2.10;;
12480;SDS011;6305;48.398;11.762;2023-07-30T05:52:06;3.85;;;2.40;;
12480;SDS011;6305;48.398;11.762;2023-07-30T05:54:33;2.20;;;1.98;;
12480;SDS011;6305;48.398;11.762;2023-07-30T05:57:01;2.58;;;2.08;;
12480;SDS011;6305;48.398;11.762;2023-07-30T05:59:29;2.85;;;2.20;;
12480;SDS011;6305;48.398;11.762;2023-07-30T06:01:56;2.10;;;1.95;;
12480;SDS011;6305;48.398;11.762;2023-07-30T06:04:24;2.42;;;2.20;;
12480;SDS011;6305;48.398;11.762;2023-07-30T06:06:51;3.28;;;2.13;;
12480;SDS011;6305;48.398;11.762;2023-07-30T06:09:18;3.75;;;2.15;;
12480;SDS011;6305;48.398;11.762;2023-07-30T06:11:45;4.43;;;2.38;;
12480;SDS011;6305;48.398;11.762;2023-07-30T06:14:13;2.35;;;2.10;;
12480;SDS011;6305;48.398;11.762;2023-07-30T06:16:40;2.78;;;2.50;;
12480;SDS011;6305;48.398;11.762;2023-07-30T06:19:08;2.92;;;2.30;;
12480;SDS011;6305;48.398;11.762;2023-07-30T06:21:35;3.70;;;2.20;;
12480;SDS011;6305;48.398;11.762;2023-07-30T06:24:02;3.80;;;2.45;;
12480;SDS011;6305;48.398;11.762;2023-07-30T06:26:29;3.78;;;2.50;;
12480;SDS011;6305;48.398;11.762;2023-07-30T06:28:57;2.90;;;2.20;;
12480;SDS011;6305;48.398;11.762;2023-07-30T06:31:25;2.47;;;2.15;;
12480;SDS011;6305;48.398;11.762;2023-07-30T06:33:53;4.07;;;2.33;;
12480;SDS011;6305;48.398;11.762;2023-07-30T06:36:19;5.50;;;2.28;;
12480;SDS011;6305;48.398;11.762;2023-07-30T06:38:46;2.65;;;2.00;;
12480;SDS011;6305;48.398;11.762;2023-07-30T06:41:13;2.45;;;2.25;;
12480;SDS011;6305;48.398;11.762;2023-07-30T06:43:40;2.55;;;2.30;;
12480;SDS011;6305;48.398;11.762;2023-07-30T06:46:07;2.17;;;1.90;;
12480;SDS011;6305;48.398;11.762;2023-07-30T06:48:35;2.47;;;2.20;;
12480;SDS011;6305;48.398;11.762;2023-07-30T06:51:05;2.05;;;1.85;;
12480;SDS011;6305;48.398;11.762;2023-07-30T06:53:33;2.33;;;2.00;;
12480;SDS011;6305;48.398;11.762;2023-07-30T06:56:00;2.20;;;1.88;;
12480;SDS011;6305;48.398;11.762;2023-07-30T06:58:27;1.80;;;1.70;;
12480;SDS011;6305;48.398;11.762;2023-07-30T07:00:54;1.80;;;1.70;;
12480;SDS011;6305;48.398;11.762;2023-07-30T07:03:21;2.35;;;1.75;;
12480;SDS011;6305;48.398;11.762;2023-07-30T07:05:53;2.20;;;1.75;;
12480;SDS011;6305;48.398;11.762;2023-07-30T07:08:20;2.33;;;1.77;;
12480;SDS011;6305;48.398;11.762;2023-07-30T07:10:47;2.00;;;1.80;;
12480;SDS011;6305;48.398;11.762;2023-07-30T07:13:14;3.40;;;2.20;;
12480;SDS011;6305;48.398;11.762;2023-07-30T07:15:41;2.45;;;1.90;;
12480;SDS011;6305;48.398;11.762;2023-07-30T07:18:09;2.03;;;1.77;;
12480;SDS011;6305;48.398;11.762;2023-07-30T07:20:36;2.10;;;1.90;;
12480;SDS011;6305;48.398;11.762;2023-07-30T07:23:04;2.60;;;1.98;;
12480;SDS011;6305;48.398;11.762;2023-07-30T07:25:31;2.10;;;1.70;;
12480;SDS011;6305;48.398;11.762;2023-07-30T07:27:58;2.22;;;1.88;;
12480;SDS011;6305;48.398;11.762;2023-07-30T07:30:26;2.00;;;1.80;;
12480;SDS011;6305;48.398;11.762;2023-07-30T07:32:53;2.20;;;1.63;;
12480;SDS011;6305;48.398;11.762;2023-07-30T07:35:20;1.88;;;1.67;;
12480;SDS011;6305;48.398;11.762;2023-07-30T07:37:48;1.92;;;1.77;;
12480;SDS011;6305;48.398;11.762;2023-07-30T07:40:16;2.35;;;1.90;;
12480;SDS011;6305;48.398;11.762;2023-07-30T07:42:43;1.80;;;1.70;;
12480;SDS011;6305;48.398;11.762;2023-07-30T07:45:10;1.92;;;1.73;;
12480;SDS011;6305;48.398;11.762;2023-07-30T07:47:37;3.15;;;1.90;;
12480;SDS011;6305;48.398;11.762;2023-07-30T07:50:05;1.92;;;1.73;;
12480;SDS011;6305;48.398;11.762;2023-07-30T07:52:32;1.85;;;1.52;;
12480;SDS011;6305;48.398;11.762;2023-07-30T07:54:59;1.75;;;1.65;;
12480;SDS011;6305;48.398;11.762;2023-07-30T07:57:27;1.70;;;1.50;;
12480;SDS011;6305;48.398;11.762;2023-07-30T07:59:55;2.95;;;1.73;;
12480;SDS011;6305;48.398;11.762;2023-07-30T08:02:22;3.47;;;1.83;;
12480;SDS011;6305;48.398;11.762;2023-07-30T08:04:56;2.20;;;1.80;;
12480;SDS011;6305;48.398;11.762;2023-07-30T08:07:23;1.80;;;1.70;;
12480;SDS011;6305;48.398;11.762;2023-07-30T08:09:49;2.00;;;1.73;;
12480;SDS011;6305;48.398;11.762;2023-07-30T08:12:16;2.55;;;1.70;;
12480;SDS011;6305;48.398;11.762;2023-07-30T08:14:46;2.00;;;1.80;;
12480;SDS011;6305;48.398;11.762;2023-07-30T08:17:13;4.07;;;1.75;;
12480;SDS011;6305;48.398;11.762;2023-07-30T08:19:40;2.45;;;1.73;;
12480;SDS011;6305;48.398;11.762;2023-07-30T08:22:07;1.67;;;1.58;;
12480;SDS011;6305;48.398;11.762;2023-07-30T08:24:34;2.75;;;1.80;;
12480;SDS011;6305;48.398;11.762;2023-07-30T08:27:01;1.80;;;1.70;;
12480;SDS011;6305;48.398;11.762;2023-07-30T08:29:28;2.45;;;1.83;;
12480;SDS011;6305;48.398;11.762;2023-07-30T08:31:57;2.72;;;1.60;;
12480;SDS011;6305;48.398;11.762;2023-07-30T08:34:24;2.05;;;1.85;;
12480;SDS011;6305;48.398;11.762;2023-07-30T08:36:51;2.70;;;1.90;;
12480;SDS011;6305;48.398;11.762;2023-07-30T08:39:18;1.90;;;1.70;;
12480;SDS011;6305;48.398;11.762;2023-07-30T08:41:45;1.80;;;1.70;;
12480;SDS011;6305;48.398;11.762;2023-07-30T08:44:13;1.40;;;1.30;;
12480;SDS011;6305;48.398;11.762;2023-07-30T08:46:39;2.03;;;1.80;;
12480;SDS011;6305;48.398;11.762;2023-07-30T08:49:08;2.40;;;1.60;;
12480;SDS011;6305;48.398;11.762;2023-07-30T08:51:36;2.00;;;1.80;;
12480;SDS011;6305;48.398;11.762;2023-07-30T08:54:03;1.63;;;1.52;;
12480;SDS011;6305;48.398;11.762;2023-07-30T08:56:31;2.70;;;1.48;;
12480;SDS011;6305;48.398;11.762;2023-07-30T08:58:59;1.40;;;1.30;;
12480;SDS011;6305;48.398;11.762;2023-07-30T09:01:28;1.83;;;1.50;;
12480;SDS011;6305;48.398;11.762;2023-07-30T09:03:57;3.72;;;2.63;;
12480;SDS011;6305;48.398;11.762;2023-07-30T09:06:27;2.22;;;1.67;;
12480;SDS011;6305;48.398;11.762;2023-07-30T09:08:54;1.63;;;1.52;;
12480;SDS011;6305;48.398;11.762;2023-07-30T09:11:24;2.33;;;1.80;;
12480;SDS011;6305;48.398;11.762;2023-07-30T09:13:53;1.75;;;1.65;;
12480;SDS011;6305;48.398;11.762;2023-07-30T09:16:24;1.70;;;1.60;;
12480;SDS011;6305;48.398;11.762;2023-07-30T09:18:53;1.88;;;1.70;;
12480;SDS011;6305;48.398;11.762;2023-07-30T09:21:30;2.97;;;1.95;;
12480;SDS011;6305;48.398;11.762;2023-07-30T09:23:57;1.98;;;1.77;;
12480;SDS011;6305;48.398;11.762;2023-07-30T09:26:36;2.10;;;1.90;;
12480;SDS011;6305;48.398;11.762;2023-07-30T09:29:08;1.77;;;1.45;;
12480;SDS011;6305;48.398;11.762;2023-07-30T09:31:43;1.95;;;1.60;;
12480;SDS011;6305;48.398;11.762;2023-07-30T09:34:14;2.40;;;1.50;;
12480;SDS011;6305;48.398;11.762;2023-07-30T09:36:45;2.88;;;1.65;;
12480;SDS011;6305;48.398;11.762;2023-07-30T09:39:16;1.92;;;1.75;;
12480;SDS011;6305;48.398;11.762;2023-07-30T09:41:44;2.55;;;1.90;;
12480;SDS011;6305;48.398;11.762;2023-07-30T09:44:11;1.70;;;1.60;;
12480;SDS011;6305;48.398;11.762;2023-07-30T09:46:42;2.13;;;1.70;;
12480;SDS011;6305;48.398;11.762;2023-07-30T09:49:10;1.73;;;1.58;;
12480;SDS011;6305;48.398;11.762;2023-07-30T09:51:37;1.55;;;1.40;;
12480;SDS011;6305;48.398;11.762;2023-07-30T09:54:07;2.15;;;1.58;;
12480;SDS011;6305;48.398;11.762;2023-07-30T09:56:34;1.90;;;1.63;;
12480;SDS011;6305;48.398;11.762;2023-07-30T09:59:02;1.95;;;1.50;;
12480;SDS011;6305;48.398;11.762;2023-07-30T10:01:30;1.50;;;1.40;;
12480;SDS011;6305;48.398;11.762;2023-07-30T10:03:57;1.80;;;1.60;;
12480;SDS011;6305;48.398;11.762;2023-07-30T10:06:25;3.17;;;1.55;;
12480;SDS011;6305;48.398;11.762;2023-07-30T10:08:55;1.55;;;1.45;;
12480;SDS011;6305;48.398;11.762;2023-07-30T10:11:27;2.20;;;1.50;;
12480;SDS011;6305;48.398;11.762;2023-07-30T10:13:55;3.38;;;1.70;;
12480;SDS011;6305;48.398;11.762;2023-07-30T10:16:25;1.80;;;1.30;;
12480;SDS011;6305;48.398;11.762;2023-07-30T10:18:55;2.65;;;1.40;;
12480;SDS011;6305;48.398;11.762;2023-07-30T10:21:23;3.03;;;1.60;;
12480;SDS011;6305;48.398;11.762;2023-07-30T10:23:57;2.00;;;1.60;;
12480;SDS011;6305;48.398;11.762;2023-07-30T10:26:30;1.75;;;1.52;;
12480;SDS011;6305;48.398;11.762;2023-07-30T10:31:43;1.40;;;1.30;;
12480;SDS011;6305;48.398;11.762;2023-07-30T10:34:14;1.58;;;1.38;;
12480;SDS011;6305;48.398;11.762;2023-07-30T10:36:42;1.70;;;1.52;;
12480;SDS011;6305;48.398;11.762;2023-07-30T10:39:11;1.65;;;1.45;;
12480;SDS011;6305;48.398;11.762;2023-07-30T10:41:42;1.45;;;1.20;;
12480;SDS011;6305;48.398;11.762;2023-07-30T10:44:22;1.60;;;1.48;;
12480;SDS011;6305;48.398;11.762;2023-07-30T10:46:50;1.95;;;1.63;;
12480;SDS011;6305;48.398;11.762;2023-07-30T10:49:18;1.60;;;1.40;;
12480;SDS011;6305;48.398;11.762;2023-07-30T10:51:45;1.50;;;1.40;;
12480;SDS011;6305;48.398;11.762;2023-07-30T10:54:12;2.58;;;1.92;;
12480;SDS011;6305;48.398;11.762;2023-07-30T10:56:42;1.70;;;1.60;;
12480;SDS011;6305;48.398;11.762;2023-07-30T10:59:10;2.47;;;1.40;;
12480;SDS011;6305;48.398;11.762;2023-07-30T11:01:38;2.25;;;1.40;;
12480;SDS011;6305;48.398;11.762;2023-07-30T11:04:07;1.42;;;1.33;;
12480;SDS011;6305;48.398;11.762;2023-07-30T11:06:34;2.28;;;1.70;;
12480;SDS011;6305;48.398;11.762;2023-07-30T11:09:01;1.30;;;1.20;;
12480;SDS011;6305;48.398;11.762;2023-07-30T11:11:29;1.60;;;1.50;;
12480;SDS011;6305;48.398;11.762;2023-07-30T11:13:57;1.45;;;1.35;;
12480;SDS011;6305;48.398;11.762;2023-07-30T11:16:24;1.75;;;1.65;;
12480;SDS011;6305;48.398;11.762;2023-07-30T11:18:52;1.73;;;1.38;;
12480;SDS011;6305;48.398;11.762;2023-07-30T11:21:19;1.10;;;1.00;;
12480;SDS011;6305;48.398;11.762;2023-07-30T11:23:46;1.70;;;1.60;;
12480;SDS011;6305;48.398;11.762;2023-07-30T11:26:13;1.98;;;1.20;;
12480;SDS011;6305;48.398;11.762;2023-07-30T11:28:42;1.85;;;1.33;;
12480;SDS011;6305;48.398;11.762;2023-07-30T11:31:12;3.22;;;1.40;;
12480;SDS011;6305;48.398;11.762;2023-07-30T11:33:40;2.08;;;1.15;;
12480;SDS011;6305;48.398;11.762;2023-07-30T11:36:09;1.33;;;1.23;;
12480;SDS011;6305;48.398;11.762;2023-07-30T11:38:38;1.13;;;1.02;;
12480;SDS011;6305;48.398;11.762;2023-07-30T11:41:05;2.42;;;1.90;;
12480;SDS011;6305;48.398;11.762;2023-07-30T11:43:35;1.33;;;1.15;;
12480;SDS011;6305;48.398;11.762;2023-07-30T11:46:09;1.83;;;1.20;;
12480;SDS011;6305;48.398;11.762;2023-07-30T11:48:53;3.45;;;1.40;;
12480;SDS011;6305;48.398;11.762;2023-07-30T11:51:37;1.33;;;1.23;;
12480;SDS011;6305;48.398;11.762;2023-07-30T11:54:04;1.48;;;1.38;;
12480;SDS011;6305;48.398;11.762;2023-07-30T11:56:32;1.30;;;1.20;;
12480;SDS011;6305;48.398;11.762;2023-07-30T11:59:00;1.40;;;1.30;;
12480;SDS011;6305;48.398;11.762;2023-07-30T12:01:30;1.98;;;1.40;;
12480;SDS011;6305;48.398;11.762;2023-07-30T12:03:59;1.40;;;1.10;;
12480;SDS011;6305;48.398;11.762;2023-07-30T12:06:37;2.08;;;1.30;;
12480;SDS011;6305;48.398;11.762;2023-07-30T12:09:09;1.35;;;1.02;;
12480;SDS011;6305;48.398;11.762;2023-07-30T12:11:43;1.38;;;1.17;;
12480;SDS011;6305;48.398;11.762;2023-07-30T12:14:12;1.58;;;1.40;;
12480;SDS011;6305;48.398;11.762;2023-07-30T12:16:40;2.45;;;1.60;;
12480;SDS011;6305;48.398;11.762;2023-07-30T12:19:07;1.73;;;1.35;;
12480;SDS011;6305;48.398;11.762;2023-07-30T12:21:35;3.30;;;1.30;;
12480;SDS011;6305;48.398;11.762;2023-07-30T12:24:02;2.40;;;1.40;;
12480;SDS011;6305;48.398;11.762;2023-07-30T12:26:30;1.92;;;1.20;;
12480;SDS011;6305;48.398;11.762;2023-07-30T12:28:57;3.70;;;1.40;;
12480;SDS011;6305;48.398;11.762;2023-07-30T12:31:24;1.65;;;1.42;;
12480;SDS011;6305;48.398;11.762;2023-07-30T12:33:53;1.98;;;1.45;;
12480;SDS011;6305;48.398;11.762;2023-07-30T12:36:21;3.47;;;1.23;;
12480;SDS011;6305;48.398;11.762;2023-07-30T12:38:47;2.30;;;1.30;;
12480;SDS011;6305;48.398;11.762;2023-07-30T12:41:17;2.13;;;1.33;;
12480;SDS011;6305;48.398;11.762;2023-07-30T12:43:50;1.63;;;1.13;;
12480;SDS011;6305;48.398;11.762;2023-07-30T12:46:17;2.03;;;1.30;;
12480;SDS011;6305;48.398;11.762;2023-07-30T12:48:45;1.70;;;1.40;;
12480;SDS011;6305;48.398;11.762;2023-07-30T12:51:13;1.73;;;1.20;;
12480;SDS011;6305;48.398;11.762;2023-07-30T12:53:40;3.15;;;1.50;;
12480;SDS011;6305;48.398;11.762;2023-07-30T12:56:07;1.98;;;1.05;;
12480;SDS011;6305;48.398;11.762;2023-07-30T12:58:34;2.17;;;1.30;;
12480;SDS011;6305;48.398;11.762;2023-07-30T13:01:02;2.75;;;1.42;;
12480;SDS011;6305;48.398;11.762;2023-07-30T13:03:29;1.30;;;1.20;;
12480;SDS011;6305;48.398;11.762;2023-07-30T13:05:56;1.80;;;1.48;;
12480;SDS011;6305;48.398;11.762;2023-07-30T13:08:25;2.00;;;1.30;;
12480;SDS011;6305;48.398;11.762;2023-07-30T13:10:52;1.88;;;1.40;;
12480;SDS011;6305;48.398;11.762;2023-07-30T13:13:19;1.63;;;1.48;;
12480;SDS011;6305;48.398;11.762;2023-07-30T13:15:46;1.50;;;1.35;;
12480;SDS011;6305;48.398;11.762;2023-07-30T13:18:13;1.50;;;1.20;;
12480;SDS011;6305;48.398;11.762;2023-07-30T13:20:40;1.75;;;1.20;;
12480;SDS011;6305;48.398;11.762;2023-07-30T13:23:07;1.88;;;1.33;;
12480;SDS011;6305;48.398;11.762;2023-07-30T13:25:35;1.60;;;1.50;;
12480;SDS011;6305;48.398;11.762;2023-07-30T13:28:03;1.30;;;1.17;;
12480;SDS011;6305;48.398;11.762;2023-07-30T13:30:30;1.30;;;1.20;;
12480;SDS011;6305;48.398;11.762;2023-07-30T13:32:57;2.13;;;1.20;;
12480;SDS011;6305;48.398;11.762;2023-07-30T13:35:24;1.48;;;1.38;;
12480;SDS011;6305;48.398;11.762;2023-07-30T13:37:51;1.70;;;1.20;;
12480;SDS011;6305;48.398;11.762;2023-07-30T13:40:18;1.40;;;1.13;;
12480;SDS011;6305;48.398;11.762;2023-07-30T13:42:47;1.60;;;1.42;;
12480;SDS011;6305;48.398;11.762;2023-07-30T13:45:14;1.70;;;1.50;;
12480;SDS011;6305;48.398;11.762;2023-07-30T13:47:41;2.38;;;1.40;;
12480;SDS011;6305;48.398;11.762;2023-07-30T13:50:08;2.05;;;1.73;;
12480;SDS011;6305;48.398;11.762;2023-07-30T13:52:35;3.03;;;1.50;;
12480;SDS011;6305;48.398;11.762;2023-07-30T13:55:02;1.50;;;1.33;;
12480;SDS011;6305;48.398;11.762;2023-07-30T13:57:30;2.30;;;1.88;;
12480;SDS011;6305;48.398;11.762;2023-07-30T13:59:58;1.58;;;1.23;;
12480;SDS011;6305;48.398;11.762;2023-07-30T14:02:25;1.58;;;1.48;;
12480;SDS011;6305;48.398;11.762;2023-07-30T14:04:52;1.38;;;1.23;;
12480;SDS011;6305;48.398;11.762;2023-07-30T14:07:19;1.85;;;1.48;;
12480;SDS011;6305;48.398;11.762;2023-07-30T14:09:46;2.10;;;1.42;;
12480;SDS011;6305;48.398;11.762;2023-07-30T14:12:14;1.45;;;1.33;;
12480;SDS011;6305;48.398;11.762;2023-07-30T14:14:41;2.33;;;1.60;;
12480;SDS011;6305;48.398;11.762;2023-07-30T14:17:09;1.92;;;1.60;;
12480;SDS011;6305;48.398;11.762;2023-07-30T14:19:36;1.75;;;1.30;;
12480;SDS011;6305;48.398;11.762;2023-07-30T14:22:04;2.38;;;1.33;;
12480;SDS011;6305;48.398;11.762;2023-07-30T14:24:31;1.80;;;1.30;;
12480;SDS011;6305;48.398;11.762;2023-07-30T14:26:59;1.95;;;1.40;;
12480;SDS011;6305;48.398;11.762;2023-07-30T14:29:26;1.35;;;1.25;;
12480;SDS011;6305;48.398;11.762;2023-07-30T14:31:53;1.38;;;1.20;;
12480;SDS011;6305;48.398;11.762;2023-07-30T14:34:21;2.40;;;1.45;;
12480;SDS011;6305;48.398;11.762;2023-07-30T14:36:48;2.88;;;1.40;;
12480;SDS011;6305;48.398;11.762;2023-07-30T14:39:15;2.55;;;1.40;;
12480;SDS011;6305;48.398;11.762;2023-07-30T14:41:42;1.48;;;1.38;;
12480;SDS011;6305;48.398;11.762;2023-07-30T14:44:09;2.45;;;1.40;;
12480;SDS011;6305;48.398;11.762;2023-07-30T14:46:36;1.77;;;1.45;;
12480;SDS011;6305;48.398;11.762;2023-07-30T14:49:03;2.00;;;1.58;;
12480;SDS011;6305;48.398;11.762;2023-07-30T14:51:32;1.80;;;1.55;;